createdAt,value
2018-12-18T00:02:19.425Z,99.90
2018-12-18T00:04:46.889Z,99.90
2018-12-18T00:07:14.430Z,99.90
2018-12-18T00:09:41.881Z,99.90
2018-12-18T00:12:09.350Z,99.90
2018-12-18T00:14:36.808Z,99.90
2018-12-18T00:17:04.304Z,99.90
2018-12-18T00:19:31.761Z,99.90
2018-12-18T00:21:59.221Z,99.90
2018-12-18T00:24:26.707Z,99.80
2018-12-18T00:26:54.149Z,99.70
2018-12-18T00:29:21.611Z,99.50
2018-12-18T00:31:49.108Z,99.40
2018-12-18T00:34:17.421Z,99.20
2018-12-18T00:36:44.964Z,99.00
2018-12-18T00:39:13.046Z,98.90
2018-12-18T00:41:40.590Z,98.80
2018-12-18T00:44:08.175Z,99.00
2018-12-18T00:46:35.708Z,98.70
2018-12-18T00:49:03.227Z,98.50
2018-12-18T00:51:30.678Z,98.30
2018-12-18T00:53:58.163Z,98.20
2018-12-18T00:56:25.612Z,98.10
2018-12-18T00:58:53.060Z,98.10
2018-12-18T01:01:20.526Z,97.90
2018-12-18T01:03:52.758Z,97.80
2018-12-18T01:06:17.562Z,97.70
2018-12-18T01:08:45.016Z,97.60
2018-12-18T01:11:12.593Z,97.50
2018-12-18T01:13:40.033Z,97.30
2018-12-18T01:16:07.527Z,97.20
2018-12-18T01:18:34.969Z,97.10
2018-12-18T01:21:02.420Z,97.10
2018-12-18T01:23:29.991Z,97.10
2018-12-18T01:25:57.444Z,97.20
2018-12-18T01:28:24.884Z,97.30
2018-12-18T01:30:52.333Z,97.50
2018-12-18T01:33:19.825Z,97.60
2018-12-18T01:35:47.285Z,97.90
2018-12-18T01:38:14.741Z,98.00
2018-12-18T01:40:42.184Z,98.20
2018-12-18T01:43:09.680Z,98.30
2018-12-18T01:45:37.177Z,98.60
2018-12-18T01:48:04.667Z,98.80
2018-12-18T01:50:32.144Z,98.80
2018-12-18T01:52:59.637Z,98.80
2018-12-18T01:55:27.083Z,98.80
2018-12-18T01:57:54.544Z,98.80
2018-12-18T02:00:22.106Z,98.80
2018-12-18T02:02:49.558Z,98.80
2018-12-18T02:05:17.037Z,98.80
2018-12-18T02:07:44.488Z,98.70
2018-12-18T02:10:11.933Z,98.60
2018-12-18T02:12:39.422Z,98.60
2018-12-18T02:15:06.865Z,98.70
2018-12-18T02:17:34.321Z,98.60
2018-12-18T02:20:01.764Z,98.60
2018-12-18T02:22:29.224Z,98.70
2018-12-18T02:24:56.669Z,98.80
2018-12-18T02:27:24.113Z,98.80
2018-12-18T02:29:51.606Z,98.90
2018-12-18T02:32:19.096Z,99.00
2018-12-18T02:34:46.537Z,99.20
2018-12-18T02:37:13.987Z,99.30
2018-12-18T02:39:41.429Z,99.50
2018-12-18T02:42:08.893Z,99.50
2018-12-18T02:44:36.335Z,99.80
2018-12-18T02:47:03.836Z,99.90
2018-12-18T02:49:31.321Z,99.90
2018-12-18T02:51:58.773Z,99.90
2018-12-18T02:54:26.224Z,99.90
2018-12-18T02:56:53.713Z,99.90
2018-12-18T02:59:21.154Z,99.90
2018-12-18T03:01:48.614Z,99.90
2018-12-18T03:04:21.521Z,99.90
2018-12-18T03:06:45.496Z,99.90
2018-12-18T03:09:12.951Z,99.90
2018-12-18T03:11:40.405Z,99.90
2018-12-18T03:14:07.858Z,99.90
2018-12-18T03:16:35.313Z,99.90
2018-12-18T03:19:02.759Z,99.90
2018-12-18T03:21:30.208Z,99.90
2018-12-18T03:23:57.728Z,99.90
2018-12-18T03:26:25.254Z,99.90
2018-12-18T03:28:52.953Z,99.90
2018-12-18T03:31:20.533Z,99.90
2018-12-18T03:33:47.974Z,99.90
2018-12-18T03:36:15.425Z,99.90
2018-12-18T03:38:42.887Z,99.90
2018-12-18T03:41:10.477Z,99.90
2018-12-18T03:43:37.921Z,99.90
2018-12-18T03:46:05.369Z,99.90
2018-12-18T03:48:32.920Z,99.90
2018-12-18T03:51:00.378Z,99.90
2018-12-18T03:53:27.829Z,99.90
2018-12-18T03:55:55.317Z,99.90
2018-12-18T03:58:22.770Z,99.90
2018-12-18T04:00:50.212Z,99.90
2018-12-18T04:03:17.710Z,99.90
2018-12-18T04:05:45.157Z,99.90
2018-12-18T04:08:12.610Z,99.90
2018-12-18T04:10:40.103Z,99.90
2018-12-18T04:13:07.597Z,99.90
2018-12-18T04:15:35.029Z,99.90
2018-12-18T04:18:02.487Z,99.90
2018-12-18T04:20:29.953Z,99.90
2018-12-18T04:22:57.478Z,99.90
2018-12-18T04:25:24.926Z,99.90
2018-12-18T04:27:52.387Z,99.90
2018-12-18T04:30:19.868Z,99.90
2018-12-18T04:32:47.320Z,99.90
2018-12-18T04:35:14.761Z,99.90
2018-12-18T04:37:42.356Z,99.90
2018-12-18T04:40:09.796Z,99.90
2018-12-18T04:42:37.245Z,99.90
2018-12-18T04:45:04.972Z,99.90
2018-12-18T04:47:32.417Z,99.90
2018-12-18T04:49:59.856Z,99.90
2018-12-18T04:52:27.317Z,99.90
2018-12-18T04:54:54.770Z,99.90
2018-12-18T04:57:22.252Z,99.90
2018-12-18T04:59:49.701Z,99.90
2018-12-18T05:02:17.142Z,99.90
2018-12-18T05:04:50.247Z,99.90
2018-12-18T05:07:14.032Z,99.90
2018-12-18T05:09:41.488Z,99.90
2018-12-18T05:12:08.934Z,99.90
2018-12-18T05:14:36.391Z,99.90
2018-12-18T05:17:03.833Z,99.90
2018-12-18T05:19:31.281Z,99.80
2018-12-18T05:21:58.725Z,99.70
2018-12-18T05:24:26.212Z,99.60
2018-12-18T05:26:53.693Z,99.50
2018-12-18T05:29:21.148Z,99.50
2018-12-18T05:31:48.595Z,99.40
2018-12-18T05:34:16.050Z,99.30
2018-12-18T05:36:43.498Z,99.60
2018-12-18T05:39:10.948Z,99.20
2018-12-18T05:41:38.486Z,99.20
2018-12-18T05:44:05.948Z,99.20
2018-12-18T05:46:33.394Z,99.10
2018-12-18T05:49:00.836Z,99.10
2018-12-18T05:51:28.284Z,99.10
2018-12-18T05:53:55.734Z,99.10
2018-12-18T05:56:23.174Z,99.10
2018-12-18T05:58:50.620Z,99.10
2018-12-18T06:01:18.113Z,99.20
2018-12-18T06:03:45.740Z,99.20
2018-12-18T06:06:13.221Z,99.20
2018-12-18T06:08:40.670Z,99.20
2018-12-18T06:11:08.105Z,99.50
2018-12-18T06:13:35.560Z,99.30
2018-12-18T06:16:03.089Z,99.30
2018-12-18T06:18:30.533Z,99.40
2018-12-18T06:20:57.982Z,99.40
2018-12-18T06:23:25.436Z,99.50
2018-12-18T06:25:52.877Z,99.50
2018-12-18T06:28:20.333Z,99.80
2018-12-18T06:30:47.807Z,99.70
2018-12-18T06:33:15.249Z,99.70
2018-12-18T06:35:42.690Z,99.80
2018-12-18T06:38:10.173Z,99.80
2018-12-18T06:40:37.627Z,99.80
2018-12-18T06:43:05.074Z,99.80
2018-12-18T06:45:32.520Z,99.80
2018-12-18T06:47:59.992Z,99.90
2018-12-18T06:50:27.427Z,99.90
2018-12-18T06:52:54.882Z,99.90
2018-12-18T06:55:22.337Z,99.90
2018-12-18T06:57:49.785Z,99.90
2018-12-18T07:00:17.242Z,99.90
2018-12-18T07:02:44.725Z,99.90
2018-12-18T07:05:16.629Z,99.90
2018-12-18T07:07:41.625Z,99.90
2018-12-18T07:10:09.160Z,99.90
2018-12-18T07:12:36.607Z,99.90
2018-12-18T07:15:04.542Z,99.90
2018-12-18T07:17:31.991Z,99.90
2018-12-18T07:19:59.445Z,99.90
2018-12-18T07:22:26.897Z,99.90
2018-12-18T07:24:54.397Z,99.90
2018-12-18T07:27:21.842Z,99.90
2018-12-18T07:29:49.311Z,99.90
2018-12-18T07:32:16.750Z,99.90
2018-12-18T07:34:44.214Z,99.90
2018-12-18T07:37:11.739Z,99.90
2018-12-18T07:39:39.190Z,99.90
2018-12-18T07:42:06.673Z,99.90
2018-12-18T07:44:34.125Z,99.90
2018-12-18T07:47:01.573Z,99.90
2018-12-18T07:49:29.025Z,99.90
2018-12-18T07:51:56.494Z,99.90
2018-12-18T07:54:23.941Z,99.90
2018-12-18T07:56:51.397Z,99.90
2018-12-18T07:59:18.854Z,99.90
2018-12-18T08:01:46.341Z,99.90
2018-12-18T08:04:13.793Z,99.90
2018-12-18T08:06:41.269Z,99.90
2018-12-18T08:09:08.733Z,99.90
2018-12-18T08:11:36.190Z,99.90
2018-12-18T08:14:03.691Z,99.90
2018-12-18T08:16:31.181Z,99.90
2018-12-18T08:18:58.647Z,99.90
2018-12-18T08:21:26.096Z,99.90
2018-12-18T08:23:56.643Z,99.90
2018-12-18T08:26:24.811Z,99.90
2018-12-18T08:28:52.278Z,99.90
2018-12-18T08:31:19.737Z,99.90
2018-12-18T08:33:47.189Z,99.90
2018-12-18T08:36:14.641Z,99.90
2018-12-18T08:38:42.099Z,99.90
2018-12-18T08:41:09.542Z,99.90
2018-12-18T08:43:36.997Z,99.90
2018-12-18T08:46:10.063Z,99.90
2018-12-18T08:48:33.947Z,99.90
2018-12-18T08:51:01.403Z,99.90
2018-12-18T08:53:28.850Z,99.90
2018-12-18T08:55:56.318Z,99.90
2018-12-18T08:58:23.773Z,99.90
2018-12-18T09:00:51.234Z,99.90
2018-12-18T09:03:18.689Z,99.90
2018-12-18T09:05:48.070Z,99.90
2018-12-18T09:08:15.502Z,99.90
2018-12-18T09:10:43.005Z,99.90
2018-12-18T09:13:10.461Z,99.90
2018-12-18T09:15:43.557Z,99.90
2018-12-18T09:18:11.016Z,99.80
2018-12-18T09:20:38.478Z,99.50
2018-12-18T09:23:05.931Z,98.50
2018-12-18T09:25:33.432Z,98.00
2018-12-18T09:28:00.873Z,97.10
2018-12-18T09:30:28.334Z,96.80
2018-12-18T09:32:55.781Z,96.60
2018-12-18T09:35:23.248Z,96.40
2018-12-18T09:37:52.646Z,96.20
2018-12-18T09:40:21.148Z,95.90
2018-12-18T09:42:54.225Z,95.90
2018-12-18T09:45:21.738Z,95.00
2018-12-18T09:47:49.177Z,95.00
2018-12-18T09:50:16.633Z,95.20
2018-12-18T09:52:44.087Z,94.50
2018-12-18T09:55:11.558Z,94.50
2018-12-18T09:57:44.649Z,94.40
2018-12-18T10:00:12.145Z,93.70
2018-12-18T10:02:39.667Z,93.60
2018-12-18T10:05:07.228Z,93.10
2018-12-18T10:07:34.679Z,93.00
2018-12-18T10:10:02.189Z,93.10
2018-12-18T10:12:35.213Z,92.90
2018-12-18T10:15:02.763Z,92.60
2018-12-18T10:17:30.205Z,92.70
2018-12-18T10:19:57.674Z,92.80
2018-12-18T10:22:25.121Z,92.10
2018-12-18T10:24:52.568Z,91.80
2018-12-18T10:27:20.035Z,90.90
2018-12-18T10:29:47.502Z,90.70
2018-12-18T10:32:14.983Z,90.00
2018-12-18T10:34:42.491Z,89.50
2018-12-18T10:37:09.940Z,89.50
2018-12-18T10:39:37.412Z,89.70
2018-12-18T10:42:04.858Z,90.10
2018-12-18T10:44:32.309Z,89.70
2018-12-18T10:46:59.760Z,89.80
2018-12-18T10:49:27.255Z,88.40
2018-12-18T10:51:54.720Z,87.70
2018-12-18T10:54:22.213Z,87.60
2018-12-18T10:56:49.681Z,86.70
2018-12-18T10:59:17.126Z,85.40
2018-12-18T11:01:46.892Z,85.70
2018-12-18T11:04:14.446Z,85.60
2018-12-18T11:06:42.034Z,85.00
2018-12-18T11:09:09.521Z,84.60
2018-12-18T11:11:37.673Z,84.60
2018-12-18T11:14:05.259Z,84.10
2018-12-18T11:16:37.293Z,84.00
2018-12-18T11:19:02.243Z,84.50
2018-12-18T11:21:29.970Z,84.50
2018-12-18T11:23:57.433Z,84.70
2018-12-18T11:26:24.892Z,85.10
2018-12-18T11:28:52.351Z,84.90
2018-12-18T11:31:19.843Z,85.00
2018-12-18T11:33:47.301Z,84.10
2018-12-18T11:36:16.709Z,84.40
2018-12-18T11:38:44.235Z,83.00
2018-12-18T11:41:11.713Z,81.40
2018-12-18T11:43:39.160Z,79.10
2018-12-18T11:46:06.617Z,75.40
2018-12-18T11:48:34.065Z,72.40
2018-12-18T11:51:01.523Z,69.80
2018-12-18T11:53:28.971Z,66.60
2018-12-18T11:55:56.434Z,60.00
2018-12-18T11:58:23.880Z,59.60
2018-12-18T12:00:51.338Z,55.10
2018-12-18T12:03:18.792Z,52.50
2018-12-18T12:05:46.258Z,49.60
2018-12-18T12:08:13.701Z,48.30
2018-12-18T12:10:41.159Z,45.90
2018-12-18T12:13:08.610Z,45.30
2018-12-18T12:15:36.059Z,43.30
2018-12-18T12:18:03.560Z,42.60
2018-12-18T12:20:31.002Z,43.60
2018-12-18T12:22:58.498Z,43.70
2018-12-18T12:25:25.945Z,43.90
2018-12-18T12:27:59.209Z,43.10
2018-12-18T12:30:26.671Z,43.20
2018-12-18T12:32:54.143Z,43.20
2018-12-18T12:35:21.674Z,42.70
2018-12-18T12:37:49.118Z,43.00
2018-12-18T12:40:16.601Z,44.40
2018-12-18T12:42:44.094Z,44.70
2018-12-18T12:45:11.573Z,46.00
2018-12-18T12:47:39.060Z,46.60
2018-12-18T12:50:06.729Z,47.90
2018-12-18T12:52:34.195Z,47.80
2018-12-18T12:55:01.654Z,48.50
2018-12-18T12:57:29.104Z,49.50
2018-12-18T12:59:56.541Z,49.60
2018-12-18T13:02:24.069Z,50.10
2018-12-18T13:04:51.567Z,50.90
2018-12-18T13:07:19.095Z,50.80
2018-12-18T13:09:46.542Z,48.50
2018-12-18T13:12:14.047Z,48.20
2018-12-18T13:14:41.563Z,46.70
2018-12-18T13:17:09.022Z,46.20
2018-12-18T13:19:36.465Z,46.30
2018-12-18T13:22:03.971Z,46.80
2018-12-18T13:24:31.410Z,47.10
2018-12-18T13:26:58.873Z,46.50
2018-12-18T13:29:26.461Z,45.80
2018-12-18T13:31:53.914Z,42.70
2018-12-18T13:34:21.371Z,41.10
2018-12-18T13:36:48.826Z,42.50
2018-12-18T13:39:16.282Z,44.90
2018-12-18T13:41:43.812Z,45.40
2018-12-18T13:44:11.263Z,45.70
2018-12-18T13:46:38.758Z,47.10
2018-12-18T13:49:06.217Z,48.40
2018-12-18T13:51:33.663Z,47.40
2018-12-18T13:54:01.114Z,47.80
2018-12-18T13:56:28.601Z,45.70
2018-12-18T13:58:56.051Z,46.10
2018-12-18T14:01:23.501Z,46.70
2018-12-18T14:03:50.962Z,47.80
2018-12-18T14:06:18.437Z,48.90
2018-12-18T14:08:45.921Z,49.90
2018-12-18T14:11:13.360Z,52.10
2018-12-18T14:13:40.835Z,54.10
2018-12-18T14:16:08.702Z,56.40
2018-12-18T14:18:36.153Z,57.10
2018-12-18T14:21:03.603Z,58.50
2018-12-18T14:23:31.058Z,60.30
2018-12-18T14:25:58.518Z,63.00
2018-12-18T14:28:25.968Z,65.00
2018-12-18T14:30:53.425Z,67.90
2018-12-18T14:33:20.892Z,71.00
2018-12-18T14:35:48.423Z,73.40
2018-12-18T14:38:15.875Z,76.20
2018-12-18T14:40:43.318Z,77.40
2018-12-18T14:43:10.782Z,79.70
2018-12-18T14:45:38.225Z,81.20
2018-12-18T14:48:05.691Z,82.80
2018-12-18T14:50:33.284Z,85.00
2018-12-18T14:53:00.752Z,86.90
2018-12-18T14:55:28.299Z,87.60
2018-12-18T14:57:56.219Z,88.60
2018-12-18T15:00:23.753Z,90.00
2018-12-18T15:02:51.228Z,90.10
2018-12-18T15:05:18.695Z,90.50
2018-12-18T15:07:46.162Z,90.80
2018-12-18T15:10:13.614Z,90.90
2018-12-18T15:12:43.065Z,91.20
2018-12-18T15:15:10.524Z,91.30
2018-12-18T15:17:37.993Z,91.90
2018-12-18T15:20:07.437Z,92.30
2018-12-18T15:22:34.951Z,92.50
2018-12-18T15:25:02.680Z,92.90
2018-12-18T15:27:30.156Z,93.10
2018-12-18T15:29:57.601Z,93.40
2018-12-18T15:32:25.108Z,93.60
2018-12-18T15:34:52.573Z,93.80
2018-12-18T15:37:20.034Z,94.10
2018-12-18T15:39:47.563Z,94.50
2018-12-18T15:42:15.010Z,94.90
2018-12-18T15:44:42.473Z,95.20
2018-12-18T15:47:09.927Z,95.40
2018-12-18T15:49:37.392Z,95.40
2018-12-18T15:52:04.850Z,95.30
2018-12-18T15:54:32.442Z,95.50
2018-12-18T15:56:59.906Z,95.80
2018-12-18T15:59:27.375Z,96.00
2018-12-18T16:01:54.865Z,95.90
2018-12-18T16:04:22.326Z,96.00
2018-12-18T16:06:49.793Z,96.20
2018-12-18T16:09:17.388Z,96.50
2018-12-18T16:11:44.825Z,96.90
2018-12-18T16:14:12.298Z,97.20
2018-12-18T16:16:40.757Z,97.50
2018-12-18T16:19:08.218Z,97.60
2018-12-18T16:21:35.677Z,98.00
2018-12-18T16:24:03.145Z,98.10
2018-12-18T16:26:30.626Z,98.10
2018-12-18T16:28:58.084Z,98.10
2018-12-18T16:31:25.548Z,96.30
2018-12-18T16:33:53.052Z,96.30
2018-12-18T16:36:20.514Z,96.30
2018-12-18T16:38:47.980Z,96.30
2018-12-18T16:41:15.437Z,96.30
2018-12-18T16:43:42.905Z,96.30
2018-12-18T16:46:10.350Z,96.40
2018-12-18T16:48:37.812Z,96.50
2018-12-18T16:51:05.274Z,96.80
2018-12-18T16:53:32.747Z,96.80
2018-12-18T16:56:00.234Z,96.90
2018-12-18T16:58:27.699Z,96.90
2018-12-18T17:00:55.145Z,97.00
2018-12-18T17:03:23.555Z,97.00
2018-12-18T17:05:51.011Z,97.10
2018-12-18T17:08:18.461Z,97.10
2018-12-18T17:10:45.915Z,97.00
2018-12-18T17:13:13.374Z,97.00
2018-12-18T17:15:40.839Z,97.10
2018-12-18T17:18:08.298Z,96.90
2018-12-18T17:20:35.741Z,96.90
2018-12-18T17:23:03.225Z,97.00
2018-12-18T17:25:30.734Z,97.10
2018-12-18T17:27:58.178Z,97.10
2018-12-18T17:30:25.667Z,97.10
2018-12-18T17:32:53.121Z,97.00
2018-12-18T17:35:20.576Z,97.00
2018-12-18T17:37:48.031Z,97.00
2018-12-18T17:40:15.486Z,97.20
2018-12-18T17:42:42.943Z,97.20
2018-12-18T17:45:10.394Z,97.30
2018-12-18T17:47:37.841Z,97.30
2018-12-18T17:50:06.198Z,97.30
2018-12-18T17:52:33.655Z,97.40
2018-12-18T17:55:01.116Z,97.40
2018-12-18T17:57:28.570Z,97.40
2018-12-18T17:59:56.089Z,97.50
2018-12-18T18:02:23.538Z,97.60
2018-12-18T18:04:51.064Z,97.80
2018-12-18T18:07:18.511Z,97.80
2018-12-18T18:09:45.974Z,97.80
2018-12-18T18:12:13.451Z,97.90
2018-12-18T18:14:40.922Z,98.20
2018-12-18T18:17:08.420Z,98.50
2018-12-18T18:19:35.925Z,98.70
2018-12-18T18:22:03.381Z,98.80
2018-12-18T18:24:30.846Z,98.90
2018-12-18T18:26:58.303Z,99.00
2018-12-18T18:29:25.766Z,99.10
2018-12-18T18:31:53.255Z,99.10
2018-12-18T18:34:20.717Z,99.10
2018-12-18T18:36:48.176Z,99.10
2018-12-18T18:39:15.771Z,99.10
2018-12-18T18:41:43.230Z,99.20
2018-12-18T18:44:10.692Z,99.20
2018-12-18T18:46:38.188Z,99.20
2018-12-18T18:49:05.654Z,99.20
2018-12-18T18:51:33.118Z,99.20
2018-12-18T18:54:00.583Z,99.10
2018-12-18T18:56:28.085Z,99.10
2018-12-18T18:58:55.582Z,99.10
2018-12-18T19:01:23.045Z,99.10
2018-12-18T19:03:50.503Z,99.00
2018-12-18T19:06:17.978Z,98.90
2018-12-18T19:08:45.438Z,98.90
2018-12-18T19:11:13.054Z,98.90
2018-12-18T19:13:40.621Z,98.90
2018-12-18T19:16:08.348Z,98.70
2018-12-18T19:18:35.796Z,98.70
2018-12-18T19:21:03.351Z,98.60
2018-12-18T19:23:30.811Z,98.50
2018-12-18T19:25:58.280Z,98.50
2018-12-18T19:28:25.736Z,98.40
2018-12-18T19:30:53.236Z,98.40
2018-12-18T19:33:20.701Z,98.30
2018-12-18T19:35:48.273Z,98.20
2018-12-18T19:38:15.728Z,98.10
2018-12-18T19:40:43.237Z,98.00
2018-12-18T19:43:10.723Z,97.90
2018-12-18T19:45:38.195Z,98.00
2018-12-18T19:48:05.780Z,98.10
2018-12-18T19:50:33.240Z,98.20
2018-12-18T19:53:00.747Z,98.20
2018-12-18T19:55:28.223Z,98.30
2018-12-18T19:57:55.694Z,98.30
2018-12-18T20:00:23.960Z,98.30
2018-12-18T20:02:51.417Z,98.30
2018-12-18T20:05:18.887Z,98.30
2018-12-18T20:07:46.338Z,98.20
2018-12-18T20:10:13.852Z,98.10
2018-12-18T20:12:41.302Z,98.00
2018-12-18T20:15:08.866Z,97.90
2018-12-18T20:17:36.370Z,97.90
2018-12-18T20:20:06.311Z,97.80
2018-12-18T20:22:33.773Z,97.80
2018-12-18T20:25:01.247Z,97.80
2018-12-18T20:27:28.800Z,97.60
2018-12-18T20:29:56.406Z,97.60
2018-12-18T20:32:23.861Z,97.50
2018-12-18T20:34:51.347Z,97.30
2018-12-18T20:37:18.858Z,97.40
2018-12-18T20:39:46.339Z,97.40
2018-12-18T20:42:13.797Z,97.30
2018-12-18T20:44:41.256Z,97.20
2018-12-18T20:47:08.718Z,97.20
2018-12-18T20:49:36.168Z,97.10
2018-12-18T20:52:03.665Z,97.10
2018-12-18T20:54:31.117Z,96.90
2018-12-18T20:56:58.577Z,96.90
2018-12-18T20:59:26.028Z,96.90
2018-12-18T21:01:53.486Z,96.80
2018-12-18T21:04:20.941Z,96.80
2018-12-18T21:06:48.466Z,96.80
2018-12-18T21:09:15.921Z,96.70
2018-12-18T21:11:43.381Z,96.90
2018-12-18T21:14:10.873Z,96.90
2018-12-18T21:16:38.325Z,97.00
2018-12-18T21:19:05.771Z,97.10
2018-12-18T21:21:33.233Z,97.20
2018-12-18T21:24:00.680Z,97.10
2018-12-18T21:26:28.150Z,97.00
2018-12-18T21:28:55.606Z,97.10
2018-12-18T21:31:23.062Z,96.60
2018-12-18T21:33:50.517Z,96.30
2018-12-18T21:36:17.976Z,96.10
2018-12-18T21:38:45.429Z,96.30
2018-12-18T21:41:12.894Z,96.40
2018-12-18T21:43:40.347Z,96.50
2018-12-18T21:46:07.803Z,96.50
2018-12-18T21:48:35.600Z,96.70
2018-12-18T21:51:03.066Z,96.80
2018-12-18T21:53:30.522Z,96.80
2018-12-18T21:55:58.066Z,96.70
2018-12-18T21:58:25.511Z,96.80
2018-12-18T22:00:52.973Z,97.00
2018-12-18T22:03:20.424Z,97.10
2018-12-18T22:05:47.877Z,97.20
2018-12-18T22:08:15.325Z,97.10
2018-12-18T22:10:42.771Z,97.30
2018-12-18T22:13:10.232Z,97.40
2018-12-18T22:15:37.693Z,97.50
2018-12-18T22:18:05.155Z,97.90
2018-12-18T22:20:32.605Z,98.00
2018-12-18T22:23:00.067Z,98.20
2018-12-18T22:25:27.527Z,98.20
2018-12-18T22:27:55.113Z,98.30
2018-12-18T22:30:22.599Z,98.40
2018-12-18T22:32:50.061Z,98.40
2018-12-18T22:35:17.501Z,98.50
2018-12-18T22:37:44.967Z,98.50
2018-12-18T22:40:12.452Z,98.60
2018-12-18T22:42:40.006Z,98.60
2018-12-18T22:45:07.502Z,98.70
2018-12-18T22:47:34.961Z,98.60
2018-12-18T22:50:02.440Z,98.60
2018-12-18T22:52:29.894Z,98.60
2018-12-18T22:54:57.344Z,98.70
2018-12-18T22:57:24.800Z,98.70
2018-12-18T22:59:52.258Z,98.60
2018-12-18T23:02:19.717Z,98.70
2018-12-18T23:04:47.315Z,98.60
2018-12-18T23:07:14.781Z,98.70
2018-12-18T23:09:42.233Z,98.70
2018-12-18T23:12:09.730Z,98.70
2018-12-18T23:14:37.173Z,98.80
2018-12-18T23:17:04.711Z,98.80
2018-12-18T23:19:32.169Z,98.70
2018-12-18T23:21:59.630Z,98.70
2018-12-18T23:24:27.169Z,98.70
2018-12-18T23:26:54.604Z,98.60
2018-12-18T23:29:22.057Z,98.50
2018-12-18T23:31:49.528Z,98.40
2018-12-18T23:34:16.979Z,98.40
2018-12-18T23:36:44.417Z,98.30
2018-12-18T23:39:11.884Z,98.40
2018-12-18T23:41:39.427Z,98.60
2018-12-18T23:44:06.968Z,98.30
2018-12-18T23:46:34.417Z,98.20
2018-12-18T23:49:01.877Z,98.10
2018-12-18T23:51:30.774Z,98.10
2018-12-18T23:53:58.266Z,98.10
2018-12-18T23:56:25.716Z,98.10
2018-12-18T23:58:53.166Z,98.20
